createdAt,value
2018-04-24T00:02:25.871Z,9.00
2018-04-24T00:04:53.405Z,9.10
2018-04-24T00:07:20.954Z,9.47
2018-04-24T00:09:49.154Z,10.32
2018-04-24T00:12:16.678Z,9.57
2018-04-24T00:14:44.506Z,10.07
2018-04-24T00:17:12.091Z,9.60
2018-04-24T00:19:39.624Z,9.47
2018-04-24T00:22:07.142Z,8.83
2018-04-24T00:24:35.491Z,9.30
2018-04-24T00:27:03.021Z,9.23
2018-04-24T00:29:30.616Z,8.52
2018-04-24T00:31:59.484Z,9.10
2018-04-24T00:34:27.079Z,8.83
2018-04-24T00:36:54.539Z,9.77
2018-04-24T00:39:22.851Z,9.33
2018-04-24T00:41:51.191Z,8.80
2018-04-24T00:44:19.475Z,9.03
2018-04-24T00:46:47.013Z,9.90
2018-04-24T00:49:26.514Z,9.60
2018-04-24T00:56:10.247Z,9.30
2018-04-24T00:58:37.807Z,9.40
2018-04-24T01:01:05.365Z,9.10
2018-04-24T01:03:32.947Z,9.15
2018-04-24T01:06:00.478Z,9.37
2018-04-24T01:08:29.000Z,9.40
2018-04-24T01:10:56.558Z,9.30
2018-04-24T01:13:24.146Z,9.50
2018-04-24T01:15:51.658Z,8.97
2018-04-24T01:18:19.754Z,10.50
2018-04-24T01:20:47.265Z,9.90
2018-04-24T01:23:16.445Z,9.32
2018-04-24T01:25:44.018Z,9.90
2018-04-24T01:28:12.927Z,9.10
2018-04-24T01:30:40.470Z,8.70
2018-04-24T01:33:08.010Z,7.77
2018-04-24T01:35:35.527Z,8.55
2018-04-24T01:38:03.161Z,8.30
2018-04-24T01:40:31.178Z,8.47
2018-04-24T01:42:58.726Z,8.30
2018-04-24T01:45:26.241Z,9.40
2018-04-24T01:47:54.559Z,8.80
2018-04-24T01:50:22.079Z,7.83
2018-04-24T01:52:50.371Z,8.57
2018-04-24T01:55:18.723Z,8.90
2018-04-24T01:57:46.230Z,7.77
2018-04-24T02:00:15.491Z,7.70
2018-04-24T02:02:43.636Z,8.30
2018-04-24T02:05:11.171Z,7.83
2018-04-24T02:07:38.678Z,8.33
2018-04-24T02:10:06.243Z,7.33
2018-04-24T02:12:33.766Z,8.83
2018-04-24T02:15:01.276Z,9.20
2018-04-24T02:17:28.823Z,8.60
2018-04-24T02:19:56.336Z,8.83
2018-04-24T02:22:23.862Z,8.82
2018-04-24T02:24:51.620Z,9.43
2018-04-24T02:27:19.134Z,8.97
2018-04-24T02:29:47.915Z,8.53
2018-04-24T02:32:17.252Z,8.43
2018-04-24T02:34:44.763Z,7.63
2018-04-24T02:37:12.290Z,9.03
2018-04-24T02:39:39.834Z,8.87
2018-04-24T02:42:07.396Z,8.93
2018-04-24T02:44:34.948Z,8.20
2018-04-24T02:47:03.230Z,8.10
2018-04-24T02:49:30.742Z,8.07
2018-04-24T02:51:59.040Z,8.40
2018-04-24T02:54:26.615Z,8.10
2018-04-24T02:56:54.144Z,8.17
2018-04-24T02:59:22.834Z,8.50
2018-04-24T03:01:51.229Z,8.10
2018-04-24T03:04:18.770Z,8.00
2018-04-24T03:06:46.326Z,9.87
2018-04-24T03:09:27.258Z,8.27
2018-04-24T03:14:54.221Z,9.23
2018-04-24T03:17:22.440Z,8.97
2018-04-24T03:19:49.968Z,9.03
2018-04-24T03:22:17.507Z,9.63
2018-04-24T03:24:45.019Z,8.63
2018-04-24T03:27:12.532Z,9.50
2018-04-24T03:29:40.118Z,9.30
2018-04-24T03:32:07.918Z,10.00
2018-04-24T03:34:35.451Z,9.60
2018-04-24T03:37:03.023Z,9.87
2018-04-24T03:39:30.598Z,10.33
2018-04-24T03:41:58.135Z,10.10
2018-04-24T03:44:26.458Z,10.10
2018-04-24T03:46:53.997Z,9.60
2018-04-24T03:49:21.517Z,10.10
2018-04-24T03:51:50.148Z,10.20
2018-04-24T03:54:17.694Z,10.40
2018-04-24T03:56:45.231Z,9.83
2018-04-24T03:59:14.486Z,11.30
2018-04-24T04:01:42.038Z,10.30
2018-04-24T04:04:09.566Z,11.07
2018-04-24T04:06:37.148Z,11.03
2018-04-24T04:09:04.670Z,11.23
2018-04-24T04:11:33.028Z,11.30
2018-04-24T04:14:00.893Z,11.07
2018-04-24T04:16:28.410Z,11.43
2018-04-24T04:19:07.762Z,11.87
2018-04-24T04:21:47.284Z,11.12
2018-04-24T04:27:18.866Z,11.80
2018-04-24T04:29:47.145Z,11.77
2018-04-24T04:32:17.374Z,10.85
2018-04-24T04:34:44.945Z,11.53
2018-04-24T04:37:12.555Z,10.68
2018-04-24T04:39:40.171Z,10.90
2018-04-24T04:42:07.697Z,11.33
2018-04-24T04:44:35.256Z,11.17
2018-04-24T04:47:02.984Z,10.87
2018-04-24T04:49:30.519Z,11.68
2018-04-24T04:51:58.850Z,11.80
2018-04-24T04:54:26.386Z,11.33
2018-04-24T04:56:53.919Z,11.53
2018-04-24T04:59:22.243Z,11.35
2018-04-24T05:01:49.764Z,10.60
2018-04-24T05:04:17.336Z,12.17
2018-04-24T05:06:44.878Z,11.63
2018-04-24T05:09:14.083Z,11.63
2018-04-24T05:11:41.598Z,11.20
2018-04-24T05:14:09.342Z,11.60
2018-04-24T05:16:36.862Z,11.57
2018-04-24T05:19:05.024Z,11.23
2018-04-24T05:21:33.392Z,12.43
2018-04-24T05:24:00.975Z,11.50
2018-04-24T05:26:28.593Z,11.85
2018-04-24T05:28:56.103Z,12.37
2018-04-24T05:31:23.646Z,13.05
2018-04-24T05:33:51.498Z,11.73
2018-04-24T05:36:19.403Z,11.73
2018-04-24T05:38:46.935Z,11.70
2018-04-24T05:41:26.743Z,11.95
2018-04-24T05:47:57.242Z,11.50
2018-04-24T05:50:24.776Z,11.47
2018-04-24T05:52:52.306Z,11.10
2018-04-24T05:55:20.413Z,12.02
2018-04-24T05:57:48.717Z,10.80
2018-04-24T06:00:16.547Z,11.43
2018-04-24T06:02:44.882Z,11.40
2018-04-24T06:05:12.410Z,13.73
2018-04-24T06:07:39.930Z,10.77
2018-04-24T06:10:07.599Z,11.50
2018-04-24T06:12:35.112Z,11.30
2018-04-24T06:15:02.674Z,11.50
2018-04-24T06:17:30.673Z,11.97
2018-04-24T06:19:58.195Z,11.80
2018-04-24T06:22:25.717Z,11.00
2018-04-24T06:24:53.386Z,10.43
2018-04-24T06:27:21.747Z,10.20
2018-04-24T06:29:49.268Z,11.30
2018-04-24T06:32:16.819Z,11.10
2018-04-24T06:34:44.682Z,10.10
2018-04-24T06:37:12.203Z,9.60
2018-04-24T06:39:40.823Z,9.50
2018-04-24T06:42:09.291Z,8.88
2018-04-24T06:44:36.823Z,7.73
2018-04-24T06:47:05.127Z,8.88
2018-04-24T06:49:32.684Z,7.70
2018-04-24T06:52:00.194Z,8.27
2018-04-24T06:54:27.735Z,8.03
2018-04-24T06:56:55.263Z,8.17
2018-04-24T06:59:22.780Z,8.33
2018-04-24T07:01:51.507Z,8.50
2018-04-24T07:04:19.034Z,8.87
2018-04-24T07:06:47.311Z,7.33
2018-04-24T07:09:16.434Z,9.00
2018-04-24T07:11:43.960Z,8.47
2018-04-24T07:14:12.260Z,8.48
2018-04-24T07:16:39.803Z,7.30
2018-04-24T07:19:08.103Z,8.83
2018-04-24T07:21:35.628Z,7.70
2018-04-24T07:24:04.250Z,8.63
2018-04-24T07:26:32.534Z,8.20
2018-04-24T07:29:00.056Z,8.00
2018-04-24T07:31:27.727Z,8.20
2018-04-24T07:33:55.238Z,8.50
2018-04-24T07:36:23.019Z,8.43
2018-04-24T07:38:50.587Z,8.73
2018-04-24T07:41:18.896Z,8.50
2018-04-24T07:43:46.414Z,9.07
2018-04-24T07:46:27.244Z,8.75
2018-04-24T07:51:30.214Z,10.27
2018-04-24T07:53:58.582Z,9.00
2018-04-24T07:56:26.104Z,8.98
2018-04-24T07:58:53.852Z,8.90
2018-04-24T08:01:21.375Z,8.18
2018-04-24T08:03:48.894Z,8.40
2018-04-24T08:06:17.623Z,7.87
2018-04-24T08:08:45.132Z,7.90
2018-04-24T08:11:15.074Z,6.63
2018-04-24T08:13:42.607Z,6.77
2018-04-24T08:16:10.136Z,7.50
2018-04-24T08:18:37.658Z,8.43
2018-04-24T08:21:05.218Z,7.93
2018-04-24T08:23:32.729Z,7.95
2018-04-24T08:26:00.249Z,7.10
2018-04-24T08:28:28.013Z,7.18
2018-04-24T08:30:55.525Z,6.40
2018-04-24T08:33:23.047Z,6.55
2018-04-24T08:35:51.104Z,7.40
2018-04-24T08:38:18.847Z,8.10
2018-04-24T08:40:46.354Z,7.17
2018-04-24T08:43:16.358Z,7.65
2018-04-24T08:45:43.914Z,7.70
2018-04-24T08:48:11.454Z,8.05
2018-04-24T08:50:39.755Z,8.07
2018-04-24T08:53:07.370Z,7.50
2018-04-24T08:55:34.838Z,7.43
2018-04-24T08:58:02.403Z,7.87
2018-04-24T09:00:30.011Z,7.23
2018-04-24T09:02:57.547Z,7.25
2018-04-24T09:05:25.098Z,7.00
2018-04-24T09:07:52.612Z,6.17
2018-04-24T09:10:21.235Z,8.23
2018-04-24T09:12:49.358Z,7.60
2018-04-24T09:15:17.738Z,7.10
2018-04-24T09:17:45.260Z,7.90
2018-04-24T09:20:13.754Z,6.00
2018-04-24T09:22:42.065Z,6.40
2018-04-24T09:25:10.347Z,7.20
2018-04-24T09:27:38.678Z,8.00
2018-04-24T09:30:06.194Z,7.97
2018-04-24T09:32:33.827Z,7.97
2018-04-24T09:37:43.850Z,8.70
2018-04-24T09:40:11.957Z,7.47
2018-04-24T09:42:39.527Z,6.13
2018-04-24T09:45:07.856Z,7.83
2018-04-24T09:47:35.406Z,7.17
2018-04-24T09:50:02.950Z,7.43
2018-04-24T09:52:30.488Z,6.73
2018-04-24T09:54:59.019Z,5.70
2018-04-24T09:57:26.565Z,6.30
2018-04-24T09:59:54.080Z,5.70
2018-04-24T10:02:22.407Z,6.00
2018-04-24T10:04:49.928Z,5.60
2018-04-24T10:07:17.455Z,5.43
2018-04-24T10:09:45.019Z,6.97
2018-04-24T10:12:12.543Z,6.60
2018-04-24T10:14:40.067Z,6.43
2018-04-24T10:17:08.290Z,6.20
2018-04-24T10:19:36.176Z,6.67
2018-04-24T10:22:03.711Z,7.17
2018-04-24T10:24:31.382Z,6.50
2018-04-24T10:26:58.916Z,6.77
2018-04-24T10:29:26.455Z,6.70
2018-04-24T10:31:54.043Z,6.10
2018-04-24T10:34:21.568Z,5.50
2018-04-24T10:36:49.962Z,4.80
2018-04-24T10:39:18.114Z,4.45
2018-04-24T10:41:46.152Z,4.83
2018-04-24T10:44:26.827Z,4.57
2018-04-24T10:49:28.026Z,5.87
2018-04-24T10:51:55.566Z,6.20
2018-04-24T10:54:23.099Z,6.07
2018-04-24T10:56:52.315Z,5.75
2018-04-24T10:59:19.885Z,5.43
2018-04-24T11:01:47.389Z,6.40
2018-04-24T11:04:16.302Z,5.53
2018-04-24T11:06:43.870Z,5.33
2018-04-24T11:09:11.383Z,6.07
2018-04-24T11:11:38.989Z,6.37
2018-04-24T11:14:07.283Z,5.85
2018-04-24T11:16:35.571Z,5.77
2018-04-24T11:19:03.778Z,5.50
2018-04-24T11:21:31.317Z,6.17
2018-04-24T11:23:58.852Z,6.00
2018-04-24T11:26:27.178Z,5.43
2018-04-24T11:28:54.768Z,4.70
2018-04-24T11:31:22.318Z,4.53
2018-04-24T11:33:50.679Z,5.23
2018-04-24T11:36:18.702Z,4.33
2018-04-24T11:38:46.522Z,5.40
2018-04-24T11:41:16.553Z,4.57
2018-04-24T11:43:44.676Z,4.83
2018-04-24T11:46:12.215Z,4.40
2018-04-24T11:48:39.903Z,3.40
2018-04-24T11:51:08.132Z,3.72
2018-04-24T11:53:36.484Z,4.55
2018-04-24T11:56:04.097Z,5.10
2018-04-24T11:58:31.656Z,4.77
2018-04-24T12:00:59.188Z,4.40
2018-04-24T12:03:28.047Z,4.00
2018-04-24T12:05:56.385Z,3.93
2018-04-24T12:08:23.894Z,4.80
2018-04-24T12:10:51.451Z,4.00
2018-04-24T12:13:18.978Z,4.73
2018-04-24T12:15:46.632Z,4.50
2018-04-24T12:18:24.636Z,4.80
2018-04-24T12:25:10.364Z,3.93
2018-04-24T12:27:37.913Z,4.63
2018-04-24T12:30:05.453Z,4.62
2018-04-24T12:32:33.008Z,5.18
2018-04-24T12:35:00.567Z,4.80
2018-04-24T12:37:28.107Z,4.33
2018-04-24T12:39:55.810Z,4.80
2018-04-24T12:42:23.372Z,3.57
2018-04-24T12:44:53.374Z,4.60
2018-04-24T12:47:21.226Z,3.80
2018-04-24T12:49:48.795Z,4.23
2018-04-24T12:52:16.499Z,4.55
2018-04-24T12:54:44.656Z,4.50
2018-04-24T12:57:12.179Z,3.80
2018-04-24T12:59:39.830Z,4.80
2018-04-24T13:02:07.483Z,4.43
2018-04-24T13:04:35.166Z,4.43
2018-04-24T13:07:02.658Z,4.10
2018-04-24T13:09:30.925Z,3.83
2018-04-24T13:11:58.524Z,3.80
2018-04-24T13:14:26.906Z,4.40
2018-04-24T13:16:55.231Z,5.37
2018-04-24T13:19:22.763Z,3.97
2018-04-24T13:21:51.148Z,4.67
2018-04-24T13:24:19.193Z,4.18
2018-04-24T13:26:47.532Z,4.25
2018-04-24T13:29:17.250Z,4.20
2018-04-24T13:31:45.421Z,3.80
2018-04-24T13:34:15.515Z,4.10
2018-04-24T13:36:43.037Z,3.70
2018-04-24T13:39:11.375Z,4.70
2018-04-24T13:41:40.715Z,3.70
2018-04-24T13:44:08.315Z,4.00
2018-04-24T13:46:36.192Z,4.13
2018-04-24T13:49:03.734Z,4.40
2018-04-24T13:51:31.251Z,3.80
2018-04-24T13:53:59.619Z,4.00
2018-04-24T13:56:27.140Z,4.13
2018-04-24T13:58:54.655Z,4.10
2018-04-24T14:01:23.167Z,3.85
2018-04-24T14:03:50.674Z,3.10
2018-04-24T14:06:18.265Z,3.60
2018-04-24T14:08:45.763Z,4.30
2018-04-24T14:11:15.434Z,3.85
2018-04-24T14:13:42.964Z,3.40
2018-04-24T14:16:10.883Z,3.53
2018-04-24T14:18:38.446Z,3.57
2018-04-24T14:21:06.728Z,3.43
2018-04-24T14:23:34.269Z,4.50
2018-04-24T14:26:01.786Z,4.50
2018-04-24T14:28:29.319Z,4.33
2018-04-24T14:30:56.869Z,3.63
2018-04-24T14:33:24.396Z,4.00
2018-04-24T14:35:51.927Z,4.10
2018-04-24T14:38:19.848Z,3.65
2018-04-24T14:40:47.739Z,4.00
2018-04-24T14:43:15.475Z,4.13
2018-04-24T14:45:43.020Z,4.23
2018-04-24T14:48:11.030Z,4.03
2018-04-24T14:50:38.571Z,4.17
2018-04-24T14:53:06.145Z,3.73
2018-04-24T14:55:33.675Z,3.65
2018-04-24T14:58:01.230Z,3.60
2018-04-24T15:00:29.398Z,3.30
2018-04-24T15:02:56.973Z,3.53
2018-04-24T15:05:24.516Z,3.72
2018-04-24T15:07:52.273Z,3.93
2018-04-24T15:10:19.807Z,3.33
2018-04-24T15:12:47.336Z,3.40
2018-04-24T15:15:17.901Z,3.10
2018-04-24T15:17:45.432Z,3.75
2018-04-24T15:20:25.021Z,3.80
2018-04-24T15:22:52.500Z,4.33
2018-04-24T15:25:20.015Z,4.10
2018-04-24T15:27:47.582Z,3.40
2018-04-24T15:30:15.535Z,3.50
2018-04-24T15:32:43.103Z,3.93
2018-04-24T15:35:10.667Z,3.77
2018-04-24T15:37:38.202Z,3.80
2018-04-24T15:40:06.507Z,4.13
2018-04-24T15:42:34.368Z,3.33
2018-04-24T15:45:01.891Z,3.60
2018-04-24T15:47:29.942Z,4.17
2018-04-24T15:49:58.287Z,4.37
2018-04-24T15:52:25.814Z,3.53
2018-04-24T15:54:54.178Z,3.23
2018-04-24T15:57:21.720Z,4.70
2018-04-24T15:59:49.527Z,3.50
2018-04-24T16:02:17.055Z,3.97
2018-04-24T16:04:45.728Z,3.60
2018-04-24T16:07:25.129Z,3.80
2018-04-24T16:12:26.321Z,3.87
2018-04-24T16:14:53.913Z,3.70
2018-04-24T16:17:21.451Z,3.67
2018-04-24T16:19:49.661Z,3.90
2018-04-24T16:22:17.234Z,3.90
2018-04-24T16:24:44.754Z,3.70
2018-04-24T16:27:12.408Z,3.67
2018-04-24T16:29:40.059Z,3.30
2018-04-24T16:32:07.546Z,4.00
2018-04-24T16:34:35.213Z,3.67
2018-04-24T16:37:02.764Z,3.87
2018-04-24T16:39:31.006Z,3.83
2018-04-24T16:41:59.201Z,3.20
2018-04-24T16:44:26.798Z,3.90
2018-04-24T16:46:54.338Z,3.37
2018-04-24T16:49:22.667Z,3.73
2018-04-24T16:51:51.239Z,3.90
2018-04-24T16:54:18.827Z,3.80
2018-04-24T16:56:46.366Z,3.93
2018-04-24T16:59:26.043Z,4.15
2018-04-24T17:04:41.106Z,3.17
2018-04-24T17:07:08.654Z,3.33
2018-04-24T17:09:36.169Z,3.00
2018-04-24T17:12:04.158Z,3.50
2018-04-24T17:14:31.681Z,3.50
2018-04-24T17:16:59.968Z,3.27
2018-04-24T17:19:27.678Z,3.40
2018-04-24T17:21:55.195Z,3.70
2018-04-24T17:24:22.742Z,3.50
2018-04-24T17:26:50.932Z,3.73
2018-04-24T17:29:18.491Z,3.83
2018-04-24T17:31:46.011Z,3.50
2018-04-24T17:34:15.499Z,3.30
2018-04-24T17:36:43.026Z,3.90
2018-04-24T17:39:10.548Z,4.28
2018-04-24T17:41:38.115Z,3.90
2018-04-24T17:44:05.644Z,4.00
2018-04-24T17:46:33.158Z,4.07
2018-04-24T17:49:00.725Z,4.03
2018-04-24T17:51:28.244Z,4.47
2018-04-24T17:53:56.989Z,4.30
2018-04-24T17:56:24.575Z,4.50
2018-04-24T17:58:52.145Z,4.30
2018-04-24T18:01:20.495Z,4.75
2018-04-24T18:03:48.047Z,4.47
2018-04-24T18:06:17.213Z,4.12
2018-04-24T18:08:44.755Z,4.27
2018-04-24T18:11:12.408Z,4.10
2018-04-24T18:13:40.001Z,4.23
2018-04-24T18:16:07.525Z,4.37
2018-04-24T18:18:35.071Z,4.43
2018-04-24T18:21:02.614Z,5.10
2018-04-24T18:23:30.206Z,4.10
2018-04-24T18:25:58.634Z,5.13
2018-04-24T18:28:26.356Z,4.90
2018-04-24T18:30:53.881Z,5.60
2018-04-24T18:33:21.470Z,5.12
2018-04-24T18:35:49.000Z,4.60
2018-04-24T18:38:16.537Z,4.17
2018-04-24T18:40:44.088Z,4.80
2018-04-24T18:43:11.626Z,5.37
2018-04-24T18:45:39.131Z,5.70
2018-04-24T18:48:06.700Z,7.17
2018-04-24T18:50:35.070Z,6.30
2018-04-24T18:53:02.621Z,5.40
2018-04-24T18:55:30.833Z,5.83
2018-04-24T18:57:58.363Z,5.63
2018-04-24T19:00:26.719Z,6.60
2018-04-24T19:02:54.322Z,6.27
2018-04-24T19:05:21.870Z,6.30
2018-04-24T19:07:49.528Z,7.20
2018-04-24T19:10:17.097Z,6.57
2018-04-24T19:12:44.638Z,6.50
2018-04-24T19:15:12.182Z,7.20
2018-04-24T19:17:41.250Z,8.23
2018-04-24T19:20:08.886Z,8.23
2018-04-24T19:22:37.166Z,7.80
2018-04-24T19:25:10.499Z,7.03
2018-04-24T19:27:38.744Z,6.93
2018-04-24T19:30:07.041Z,7.70
2018-04-24T19:32:34.990Z,6.90
2018-04-24T19:35:02.566Z,7.10
2018-04-24T19:37:30.230Z,6.72
2018-04-24T19:40:03.685Z,7.33
2018-04-24T19:42:31.320Z,7.57
2018-04-24T19:44:58.867Z,7.20
2018-04-24T19:47:26.430Z,8.03
2018-04-24T19:49:59.521Z,9.43
2018-04-24T19:52:27.857Z,8.93
2018-04-24T19:55:00.967Z,9.73
2018-04-24T19:57:29.268Z,9.38
2018-04-24T19:59:56.775Z,8.10
2018-04-24T20:02:24.333Z,8.90
2018-04-24T20:04:51.902Z,8.30
2018-04-24T20:07:19.424Z,8.47
2018-04-24T20:09:46.963Z,7.50
2018-04-24T20:12:26.262Z,7.05
2018-04-24T20:17:28.615Z,8.03
2018-04-24T20:19:56.313Z,7.53
2018-04-24T20:22:23.838Z,7.70
2018-04-24T20:24:51.390Z,8.43
2018-04-24T20:27:18.914Z,7.60
2018-04-24T20:29:46.539Z,10.10
2018-04-24T20:32:26.792Z,9.88
2018-04-24T20:37:39.538Z,9.00
2018-04-24T20:40:07.097Z,8.20
2018-04-24T20:42:34.639Z,8.00
2018-04-24T20:45:02.203Z,8.97
2018-04-24T20:47:29.752Z,7.97
2018-04-24T20:49:57.330Z,9.00
2018-04-24T20:52:24.892Z,8.40
2018-04-24T20:54:52.422Z,8.30
2018-04-24T20:57:19.966Z,8.38
2018-04-24T20:59:48.079Z,8.40
2018-04-24T21:02:16.414Z,9.60
2018-04-24T21:04:43.953Z,7.73
2018-04-24T21:07:11.499Z,8.07
2018-04-24T21:09:39.086Z,8.23
2018-04-24T21:12:07.249Z,8.75
2018-04-24T21:14:35.572Z,8.50
2018-04-24T21:17:03.096Z,8.73
2018-04-24T21:19:30.706Z,7.70
2018-04-24T21:21:58.244Z,8.23
2018-04-24T21:24:25.853Z,7.57
2018-04-24T21:26:53.346Z,7.10
2018-04-24T21:29:20.923Z,7.40
2018-04-24T21:31:48.452Z,7.10
2018-04-24T21:34:16.486Z,7.53
2018-04-24T21:36:44.046Z,6.87
2018-04-24T21:39:13.996Z,7.72
2018-04-24T21:41:41.528Z,7.33
2018-04-24T21:44:09.891Z,7.90
2018-04-24T21:46:37.449Z,7.73
2018-04-24T21:49:05.005Z,7.47
2018-04-24T21:51:32.557Z,7.97
2018-04-24T21:54:00.079Z,7.50
2018-04-24T21:56:27.602Z,7.87
2018-04-24T21:58:55.184Z,8.03
2018-04-24T22:01:23.199Z,8.10
2018-04-24T22:03:50.722Z,7.27
2018-04-24T22:06:18.505Z,7.73
2018-04-24T22:08:46.022Z,8.10
2018-04-24T22:11:24.503Z,7.35
2018-04-24T22:13:52.035Z,6.53
2018-04-24T22:16:20.334Z,7.25
2018-04-24T22:18:47.867Z,6.60
2018-04-24T22:21:16.412Z,7.15
2018-04-24T22:23:44.698Z,7.13
2018-04-24T22:26:12.920Z,8.03
2018-04-24T22:28:40.442Z,7.30
2018-04-24T22:31:07.970Z,6.93
2018-04-24T22:33:35.528Z,7.53
2018-04-24T22:36:03.834Z,7.83
2018-04-24T22:38:31.355Z,8.20
2018-04-24T22:40:58.947Z,7.13
2018-04-24T22:43:26.474Z,7.70
2018-04-24T22:45:54.010Z,7.33
2018-04-24T22:48:21.614Z,7.30
2018-04-24T22:50:49.148Z,7.37
2018-04-24T22:53:16.671Z,6.67
2018-04-24T22:55:44.218Z,7.30
2018-04-24T22:58:11.751Z,7.10
2018-04-24T23:00:39.285Z,7.53
2018-04-24T23:03:07.634Z,7.20
2018-04-24T23:05:35.160Z,7.17
2018-04-24T23:08:02.689Z,7.13
2018-04-24T23:10:42.649Z,6.80
2018-04-24T23:13:21.891Z,8.13
2018-04-24T23:16:01.326Z,7.73
2018-04-24T23:18:40.665Z,7.27
2018-04-24T23:21:07.758Z,8.13
2018-04-24T23:23:35.296Z,6.70
2018-04-24T23:26:02.888Z,6.70
2018-04-24T23:28:30.954Z,6.40
2018-04-24T23:30:58.491Z,6.20
2018-04-24T23:33:26.809Z,6.37
2018-04-24T23:35:54.366Z,7.17
2018-04-24T23:38:21.880Z,6.57
2018-04-24T23:40:49.439Z,7.87
2018-04-24T23:43:16.997Z,7.90
2018-04-24T23:45:44.511Z,8.02
2018-04-24T23:48:12.068Z,7.20
2018-04-24T23:50:40.911Z,7.63
2018-04-24T23:53:08.429Z,7.13
2018-04-24T23:55:36.710Z,7.93
2018-04-24T23:58:05.016Z,8.20
